createdAt,value
2018-02-22T00:02:24.532Z,-1.60
2018-02-22T00:04:52.315Z,-1.60
2018-02-22T00:07:19.937Z,-1.60
2018-02-22T00:09:48.324Z,-1.60
2018-02-22T00:12:16.683Z,-1.60
2018-02-22T00:14:44.267Z,-1.60
2018-02-22T00:17:12.687Z,-1.60
2018-02-22T00:19:40.284Z,-1.60
2018-02-22T00:22:07.909Z,-1.60
2018-02-22T00:24:35.526Z,-1.60
2018-02-22T00:27:03.229Z,-1.60
2018-02-22T00:29:31.601Z,-1.60
2018-02-22T00:32:00.021Z,-1.60
2018-02-22T00:34:27.643Z,-1.60
2018-02-22T00:36:55.248Z,-1.60
2018-02-22T00:39:23.053Z,-1.60
2018-02-22T00:41:50.665Z,-1.60
2018-02-22T00:44:19.065Z,-1.70
2018-02-22T00:46:46.657Z,-1.70
2018-02-22T00:49:14.257Z,-1.60
2018-02-22T00:51:41.878Z,-1.70
2018-02-22T00:54:09.482Z,-1.60
2018-02-22T00:56:37.116Z,-1.60
2018-02-22T00:59:04.714Z,-1.60
2018-02-22T01:01:33.112Z,-1.70
2018-02-22T01:04:00.780Z,-1.70
2018-02-22T01:06:29.204Z,-1.70
2018-02-22T01:08:56.793Z,-1.70
2018-02-22T01:11:24.395Z,-1.70
2018-02-22T01:13:52.793Z,-1.70
2018-02-22T01:16:21.157Z,-1.70
2018-02-22T01:18:49.670Z,-1.80
2018-02-22T01:21:17.278Z,-1.80
2018-02-22T01:23:44.906Z,-1.80
2018-02-22T01:26:12.632Z,-1.80
2018-02-22T01:28:40.684Z,-1.80
2018-02-22T01:31:08.454Z,-1.80
2018-02-22T01:33:36.059Z,-1.80
2018-02-22T01:36:04.460Z,-1.80
2018-02-22T01:38:32.071Z,-1.90
2018-02-22T01:40:59.722Z,-1.90
2018-02-22T01:43:33.960Z,-1.90
2018-02-22T01:46:01.633Z,-1.90
2018-02-22T01:48:29.241Z,-1.90
2018-02-22T01:50:56.961Z,-1.90
2018-02-22T01:53:24.592Z,-1.90
2018-02-22T01:55:52.257Z,-1.90
2018-02-22T01:58:19.920Z,-1.90
2018-02-22T02:00:47.515Z,-1.90
2018-02-22T02:03:15.472Z,-1.80
2018-02-22T02:05:43.102Z,-1.80
2018-02-22T02:08:11.553Z,-1.90
2018-02-22T02:10:39.249Z,-1.90
2018-02-22T02:13:07.619Z,-1.90
2018-02-22T02:15:36.008Z,-1.90
2018-02-22T02:18:04.364Z,-1.90
2018-02-22T02:20:32.217Z,-1.90
2018-02-22T02:22:59.814Z,-1.90
2018-02-22T02:25:28.199Z,-2.00
2018-02-22T02:28:03.043Z,-2.00
2018-02-22T02:30:31.450Z,-2.00
2018-02-22T02:32:59.099Z,-2.00
2018-02-22T02:35:27.557Z,-1.90
2018-02-22T02:37:55.142Z,-1.90
2018-02-22T02:40:23.519Z,-1.90
2018-02-22T02:42:51.931Z,-2.00
2018-02-22T02:45:19.608Z,-2.00
2018-02-22T02:47:47.349Z,-2.00
2018-02-22T02:50:15.759Z,-2.10
2018-02-22T02:52:43.367Z,-2.10
2018-02-22T02:55:10.991Z,-2.10
2018-02-22T02:57:38.614Z,-2.20
2018-02-22T03:00:06.252Z,-2.20
2018-02-22T03:02:33.892Z,-2.20
2018-02-22T03:05:01.507Z,-2.30
2018-02-22T03:07:29.143Z,-2.30
2018-02-22T03:09:56.742Z,-2.30
2018-02-22T03:12:25.154Z,-2.40
2018-02-22T03:14:53.592Z,-2.40
2018-02-22T03:17:21.238Z,-2.40
2018-02-22T03:19:48.848Z,-2.40
2018-02-22T03:22:17.273Z,-2.40
2018-02-22T03:24:44.897Z,-2.40
2018-02-22T03:27:19.372Z,-2.50
2018-02-22T03:29:46.999Z,-2.50
2018-02-22T03:32:15.375Z,-2.50
2018-02-22T03:34:43.023Z,-2.50
2018-02-22T03:37:10.638Z,-2.50
2018-02-22T03:39:38.277Z,-2.60
2018-02-22T03:42:05.902Z,-2.60
2018-02-22T03:44:33.503Z,-2.60
2018-02-22T03:47:01.125Z,-2.60
2018-02-22T03:49:28.723Z,-2.70
2018-02-22T03:51:57.136Z,-2.70
2018-02-22T03:54:25.533Z,-2.70
2018-02-22T03:56:53.125Z,-2.70
2018-02-22T03:59:20.746Z,-2.70
2018-02-22T04:01:49.125Z,-2.70
2018-02-22T04:04:17.675Z,-2.70
2018-02-22T04:06:45.298Z,-2.70
2018-02-22T04:09:13.705Z,-2.80
2018-02-22T04:11:41.318Z,-2.80
2018-02-22T04:14:08.925Z,-2.80
2018-02-22T04:16:36.575Z,-2.80
2018-02-22T04:19:04.936Z,-2.80
2018-02-22T04:21:32.588Z,-2.80
2018-02-22T04:24:01.695Z,-2.80
2018-02-22T04:26:29.618Z,-2.80
2018-02-22T04:28:57.215Z,-2.80
2018-02-22T04:31:24.816Z,-2.80
2018-02-22T04:33:53.212Z,-2.80
2018-02-22T04:36:21.583Z,-2.80
2018-02-22T04:38:49.998Z,-2.80
2018-02-22T04:41:17.584Z,-2.80
2018-02-22T04:43:45.212Z,-2.80
2018-02-22T04:46:12.814Z,-2.80
2018-02-22T04:48:40.720Z,-2.80
2018-02-22T04:51:08.313Z,-2.80
2018-02-22T04:53:35.902Z,-2.80
2018-02-22T04:56:03.528Z,-2.80
2018-02-22T04:58:31.133Z,-2.80
2018-02-22T05:00:59.030Z,-2.80
2018-02-22T05:03:26.701Z,-2.80
2018-02-22T05:05:55.149Z,-2.80
2018-02-22T05:08:22.782Z,-2.80
2018-02-22T05:10:55.028Z,-2.80
2018-02-22T05:13:22.654Z,-2.80
2018-02-22T05:15:50.252Z,-2.80
2018-02-22T05:18:17.903Z,-2.80
2018-02-22T05:20:45.520Z,-2.80
2018-02-22T05:23:13.882Z,-2.80
2018-02-22T05:25:41.513Z,-2.80
2018-02-22T05:28:09.116Z,-2.80
2018-02-22T05:30:36.731Z,-2.80
2018-02-22T05:33:04.324Z,-2.80
2018-02-22T05:35:32.089Z,-2.80
2018-02-22T05:37:59.687Z,-2.80
2018-02-22T05:40:27.423Z,-2.80
2018-02-22T05:42:55.036Z,-2.80
2018-02-22T05:45:23.416Z,-2.70
2018-02-22T05:47:51.810Z,-2.70
2018-02-22T05:50:20.171Z,-2.70
2018-02-22T05:52:48.573Z,-2.70
2018-02-22T05:55:16.951Z,-2.70
2018-02-22T05:57:45.354Z,-2.80
2018-02-22T06:00:13.152Z,-2.80
2018-02-22T06:02:40.801Z,-2.80
2018-02-22T06:05:08.416Z,-2.70
2018-02-22T06:07:36.015Z,-2.70
2018-02-22T06:10:04.419Z,-2.80
2018-02-22T06:12:32.867Z,-2.70
2018-02-22T06:15:01.513Z,-2.80
2018-02-22T06:17:29.162Z,-2.80
2018-02-22T06:19:56.821Z,-2.70
2018-02-22T06:22:24.494Z,-2.70
2018-02-22T06:24:52.105Z,-2.70
2018-02-22T06:27:19.792Z,-2.70
2018-02-22T06:29:48.146Z,-2.70
2018-02-22T06:32:15.747Z,-2.70
2018-02-22T06:34:44.138Z,-2.70
2018-02-22T06:37:12.520Z,-2.70
2018-02-22T06:39:40.161Z,-2.70
2018-02-22T06:42:08.554Z,-2.70
2018-02-22T06:44:36.968Z,-2.70
2018-02-22T06:47:04.574Z,-2.70
2018-02-22T06:49:32.160Z,-2.70
2018-02-22T06:52:00.678Z,-2.70
2018-02-22T06:54:28.308Z,-2.70
2018-02-22T06:56:55.959Z,-2.70
2018-02-22T06:59:24.439Z,-2.70
2018-02-22T07:01:52.115Z,-2.70
2018-02-22T07:04:19.751Z,-2.70
2018-02-22T07:06:47.340Z,-2.70
2018-02-22T07:09:14.955Z,-2.70
2018-02-22T07:11:42.729Z,-2.70
2018-02-22T07:14:10.316Z,-2.70
2018-02-22T07:16:37.929Z,-2.70
2018-02-22T07:19:06.317Z,-2.60
2018-02-22T07:21:35.061Z,-2.60
2018-02-22T07:24:02.656Z,-2.70
2018-02-22T07:26:30.425Z,-2.60
2018-02-22T07:28:58.837Z,-2.60
2018-02-22T07:31:27.191Z,-2.60
2018-02-22T07:33:54.873Z,-2.60
2018-02-22T07:36:22.579Z,-2.60
2018-02-22T07:38:50.215Z,-2.60
2018-02-22T07:41:18.575Z,-2.60
2018-02-22T07:43:46.177Z,-2.60
2018-02-22T07:46:14.569Z,-2.60
2018-02-22T07:48:42.155Z,-2.60
2018-02-22T07:51:09.779Z,-2.60
2018-02-22T07:53:38.154Z,-2.60
2018-02-22T07:56:06.516Z,-2.60
2018-02-22T07:58:34.144Z,-2.60
2018-02-22T08:01:01.756Z,-2.60
2018-02-22T08:03:30.260Z,-2.50
2018-02-22T08:05:58.621Z,-2.60
2018-02-22T08:08:26.258Z,-2.60
2018-02-22T08:10:53.884Z,-2.60
2018-02-22T08:13:22.246Z,-2.60
2018-02-22T08:15:49.927Z,-2.60
2018-02-22T08:18:18.298Z,-2.50
2018-02-22T08:20:46.710Z,-2.50
2018-02-22T08:23:14.312Z,-2.50
2018-02-22T08:25:41.936Z,-2.50
2018-02-22T08:28:10.308Z,-2.50
2018-02-22T08:30:38.684Z,-2.50
2018-02-22T08:33:06.360Z,-2.50
2018-02-22T08:35:34.739Z,-2.50
2018-02-22T08:38:03.226Z,-2.50
2018-02-22T08:40:31.592Z,-2.50
2018-02-22T08:42:59.244Z,-2.50
2018-02-22T08:45:26.846Z,-2.50
2018-02-22T08:47:55.349Z,-2.40
2018-02-22T08:50:23.010Z,-2.40
2018-02-22T08:52:52.109Z,-2.30
2018-02-22T08:55:19.739Z,-2.40
2018-02-22T08:57:47.519Z,-2.30
2018-02-22T09:00:16.657Z,-2.30
2018-02-22T09:02:44.269Z,-2.20
2018-02-22T09:05:11.912Z,-2.20
2018-02-22T09:07:39.520Z,-2.20
2018-02-22T09:10:07.139Z,-2.10
2018-02-22T09:12:34.767Z,-2.20
2018-02-22T09:15:03.144Z,-2.20
2018-02-22T09:17:31.721Z,-2.20
2018-02-22T09:20:00.203Z,-2.20
2018-02-22T09:22:28.611Z,-2.20
2018-02-22T09:24:57.009Z,-2.20
2018-02-22T09:27:24.620Z,-2.20
2018-02-22T09:29:52.267Z,-2.20
2018-02-22T09:32:19.882Z,-2.20
2018-02-22T09:34:48.331Z,-2.20
2018-02-22T09:37:15.945Z,-2.20
2018-02-22T09:39:43.591Z,-2.20
2018-02-22T09:42:11.976Z,-2.20
2018-02-22T09:44:40.358Z,-2.20
2018-02-22T09:47:08.746Z,-2.30
2018-02-22T09:49:36.326Z,-2.30
2018-02-22T09:52:04.714Z,-2.30
2018-02-22T09:54:32.325Z,-2.30
2018-02-22T09:56:59.966Z,-2.30
2018-02-22T09:59:27.584Z,-2.30
2018-02-22T10:02:04.266Z,-2.30
2018-02-22T10:04:32.624Z,-2.20
2018-02-22T10:07:01.036Z,-2.20
2018-02-22T10:09:29.559Z,-2.20
2018-02-22T10:11:57.197Z,-2.20
2018-02-22T10:14:25.551Z,-2.20
2018-02-22T10:16:53.152Z,-2.20
2018-02-22T10:19:20.792Z,-2.20
2018-02-22T10:21:49.171Z,-2.30
2018-02-22T10:24:17.577Z,-2.30
2018-02-22T10:26:45.978Z,-2.30
2018-02-22T10:29:13.576Z,-2.30
2018-02-22T10:31:41.212Z,-2.30
2018-02-22T10:34:08.809Z,-2.40
2018-02-22T10:36:36.422Z,-2.40
2018-02-22T10:39:04.809Z,-2.30
2018-02-22T10:41:33.197Z,-2.30
2018-02-22T10:44:00.825Z,-2.30
2018-02-22T10:46:28.441Z,-2.20
2018-02-22T10:48:56.081Z,-2.20
2018-02-22T10:51:24.456Z,-2.20
2018-02-22T10:53:52.837Z,-2.20
2018-02-22T10:56:21.317Z,-2.20
2018-02-22T10:58:48.959Z,-2.20
2018-02-22T11:01:22.213Z,-2.10
2018-02-22T11:03:50.260Z,-2.20
2018-02-22T11:06:17.868Z,-2.10
2018-02-22T11:08:45.555Z,-2.10
2018-02-22T11:11:13.199Z,-2.20
2018-02-22T11:13:40.804Z,-2.10
2018-02-22T11:16:08.429Z,-2.10
2018-02-22T11:18:36.059Z,-2.10
2018-02-22T11:21:04.469Z,-2.20
2018-02-22T11:23:32.108Z,-2.20
2018-02-22T11:25:59.759Z,-2.10
2018-02-22T11:28:27.398Z,-2.10
2018-02-22T11:30:54.992Z,-2.10
2018-02-22T11:33:22.641Z,-2.10
2018-02-22T11:35:50.276Z,-2.00
2018-02-22T11:38:17.909Z,-2.00
2018-02-22T11:40:46.282Z,-2.10
2018-02-22T11:43:15.388Z,-2.10
2018-02-22T11:45:44.090Z,-2.10
2018-02-22T11:48:12.554Z,-2.10
2018-02-22T11:50:40.168Z,-2.10
2018-02-22T11:53:07.760Z,-2.10
2018-02-22T11:55:35.390Z,-2.00
2018-02-22T11:58:02.999Z,-2.10
2018-02-22T12:00:30.622Z,-2.10
2018-02-22T12:02:58.256Z,-2.10
2018-02-22T12:05:26.695Z,-2.10
2018-02-22T12:07:54.331Z,-2.10
2018-02-22T12:10:22.701Z,-2.20
2018-02-22T12:12:51.129Z,-2.20
2018-02-22T12:15:18.747Z,-2.20
2018-02-22T12:17:47.156Z,-2.20
2018-02-22T12:20:14.808Z,-2.20
2018-02-22T12:22:43.215Z,-2.20
2018-02-22T12:25:10.904Z,-2.20
2018-02-22T12:27:38.636Z,-2.20
2018-02-22T12:30:06.601Z,-2.20
2018-02-22T12:32:35.312Z,-2.10
2018-02-22T12:35:02.914Z,-2.10
2018-02-22T12:37:30.556Z,-2.10
2018-02-22T12:39:58.183Z,-2.10
2018-02-22T12:42:26.570Z,-2.10
2018-02-22T12:44:55.203Z,-2.10
2018-02-22T12:47:22.843Z,-2.10
2018-02-22T12:49:50.473Z,-2.10
2018-02-22T12:52:18.860Z,-2.10
2018-02-22T12:54:47.410Z,-2.10
2018-02-22T12:57:15.040Z,-2.10
2018-02-22T12:59:43.383Z,-2.10
2018-02-22T13:02:11.000Z,-2.10
2018-02-22T13:04:38.668Z,-2.00
2018-02-22T13:07:06.271Z,-2.00
2018-02-22T13:09:33.895Z,-2.00
2018-02-22T13:12:01.534Z,-2.00
2018-02-22T13:14:29.922Z,-2.00
2018-02-22T13:16:58.353Z,-1.90
2018-02-22T13:19:25.980Z,-1.90
2018-02-22T13:21:54.373Z,-1.90
2018-02-22T13:24:21.992Z,-1.90
2018-02-22T13:26:49.613Z,-1.80
2018-02-22T13:29:17.354Z,-1.90
2018-02-22T13:31:45.720Z,-1.90
2018-02-22T13:34:25.904Z,-1.90
2018-02-22T13:36:53.511Z,-1.90
2018-02-22T13:39:21.148Z,-1.90
2018-02-22T13:41:48.770Z,-1.90
2018-02-22T13:44:28.870Z,-1.90
2018-02-22T13:46:57.283Z,-2.00
2018-02-22T13:49:38.315Z,-2.00
2018-02-22T13:52:06.052Z,-2.00
2018-02-22T13:54:33.697Z,-2.00
2018-02-22T13:57:13.148Z,-2.00
2018-02-22T13:59:41.567Z,-2.10
2018-02-22T14:02:21.026Z,-2.10
2018-02-22T14:04:48.777Z,-2.10
2018-02-22T14:07:16.392Z,-2.10
2018-02-22T14:09:44.022Z,-2.10
2018-02-22T14:12:11.639Z,-2.10
2018-02-22T14:14:40.172Z,-2.20
2018-02-22T14:17:07.824Z,-2.20
2018-02-22T14:19:35.432Z,-2.20
2018-02-22T14:22:03.075Z,-2.20
2018-02-22T14:24:30.692Z,-2.20
2018-02-22T14:26:59.093Z,-2.20
2018-02-22T14:29:27.475Z,-2.20
2018-02-22T14:31:55.086Z,-2.20
2018-02-22T14:34:22.743Z,-2.20
2018-02-22T14:36:50.395Z,-2.20
2018-02-22T14:39:18.162Z,-2.20
2018-02-22T14:41:45.812Z,-2.20
2018-02-22T14:44:14.220Z,-2.30
2018-02-22T14:46:41.963Z,-2.30
2018-02-22T14:49:10.648Z,-2.30
2018-02-22T14:51:39.067Z,-2.30
2018-02-22T14:54:06.737Z,-2.30
2018-02-22T14:56:34.406Z,-2.30
2018-02-22T14:59:02.015Z,-2.30
2018-02-22T15:01:30.439Z,-2.30
2018-02-22T15:03:58.050Z,-2.30
2018-02-22T15:06:26.462Z,-2.30
2018-02-22T15:08:54.839Z,-2.30
2018-02-22T15:11:23.239Z,-2.30
2018-02-22T15:13:54.708Z,-2.30
2018-02-22T15:16:22.385Z,-2.30
2018-02-22T15:18:50.021Z,-2.30
2018-02-22T15:21:18.383Z,-2.30
2018-02-22T15:23:46.967Z,-2.30
2018-02-22T15:26:14.678Z,-2.30
2018-02-22T15:28:43.031Z,-2.30
2018-02-22T15:31:11.409Z,-2.30
2018-02-22T15:33:39.809Z,-2.30
2018-02-22T15:36:08.328Z,-2.30
2018-02-22T15:38:36.006Z,-2.30
2018-02-22T15:41:03.621Z,-2.30
2018-02-22T15:43:32.001Z,-2.30
2018-02-22T15:46:00.470Z,-2.30
2018-02-22T15:48:28.287Z,-2.30
2018-02-22T15:50:55.964Z,-2.30
2018-02-22T15:53:23.726Z,-2.30
2018-02-22T15:55:51.405Z,-2.30
2018-02-22T15:58:19.055Z,-2.30
2018-02-22T16:00:46.652Z,-2.30
2018-02-22T16:03:14.293Z,-2.30
2018-02-22T16:05:41.926Z,-2.40
2018-02-22T16:08:10.347Z,-2.40
2018-02-22T16:10:38.001Z,-2.40
2018-02-22T16:13:05.621Z,-2.40
2018-02-22T16:15:33.442Z,-2.40
2018-02-22T16:18:01.045Z,-2.40
2018-02-22T16:20:29.013Z,-2.40
2018-02-22T16:22:56.644Z,-2.40
2018-02-22T16:25:24.519Z,-2.40
2018-02-22T16:27:52.259Z,-2.40
2018-02-22T16:30:20.659Z,-2.40
2018-02-22T16:32:48.317Z,-2.40
2018-02-22T16:35:16.705Z,-2.50
2018-02-22T16:37:45.103Z,-2.50
2018-02-22T16:40:12.758Z,-2.50
2018-02-22T16:42:40.393Z,-2.50
2018-02-22T16:45:08.807Z,-2.50
2018-02-22T16:47:36.413Z,-2.50
2018-02-22T16:50:04.224Z,-2.50
2018-02-22T16:52:31.846Z,-2.50
2018-02-22T16:54:59.594Z,-2.50
2018-02-22T16:57:27.241Z,-2.50
2018-02-22T16:59:54.958Z,-2.50
2018-02-22T17:02:22.665Z,-2.50
2018-02-22T17:04:51.456Z,-2.50
2018-02-22T17:07:19.853Z,-2.50
2018-02-22T17:09:48.198Z,-2.50
2018-02-22T17:12:15.844Z,-2.50
2018-02-22T17:14:43.516Z,-2.50
2018-02-22T17:17:11.152Z,-2.50
2018-02-22T17:19:38.816Z,-2.50
2018-02-22T17:22:06.508Z,-2.50
2018-02-22T17:24:34.153Z,-2.50
2018-02-22T17:27:07.454Z,-2.60
2018-02-22T17:29:40.782Z,-2.60
2018-02-22T17:32:14.072Z,-2.60
2018-02-22T17:34:41.709Z,-2.50
2018-02-22T17:37:12.136Z,-2.50
2018-02-22T17:39:39.822Z,-2.50
2018-02-22T17:42:07.417Z,-2.50
2018-02-22T17:44:35.056Z,-2.50
2018-02-22T17:47:02.712Z,-2.50
2018-02-22T17:49:30.337Z,-2.50
2018-02-22T17:51:58.918Z,-2.50
2018-02-22T17:54:27.405Z,-2.50
2018-02-22T17:56:55.909Z,-2.50
2018-02-22T17:59:24.313Z,-2.50
2018-02-22T18:01:51.968Z,-2.50
2018-02-22T18:04:19.627Z,-2.50
2018-02-22T18:06:47.292Z,-2.50
2018-02-22T18:09:15.007Z,-2.50
2018-02-22T18:11:42.636Z,-2.50
2018-02-22T18:14:10.318Z,-2.50
2018-02-22T18:16:38.038Z,-2.40
2018-02-22T18:19:06.505Z,-2.40
2018-02-22T18:21:34.119Z,-2.40
2018-02-22T18:24:02.712Z,-2.40
2018-02-22T18:26:30.342Z,-2.40
2018-02-22T18:28:58.927Z,-2.40
2018-02-22T18:31:26.641Z,-2.40
2018-02-22T18:33:54.344Z,-2.40
2018-02-22T18:36:22.075Z,-2.50
2018-02-22T18:38:55.423Z,-2.50
2018-02-22T18:41:23.147Z,-2.50
2018-02-22T18:43:56.502Z,-2.40
2018-02-22T18:46:24.937Z,-2.40
2018-02-22T18:48:53.514Z,-2.40
2018-02-22T18:51:21.258Z,-2.40
2018-02-22T18:53:49.863Z,-2.50
2018-02-22T18:56:17.661Z,-2.50
2018-02-22T18:58:45.408Z,-2.50
2018-02-22T19:01:13.177Z,-2.50
2018-02-22T19:03:40.984Z,-2.50
2018-02-22T19:06:09.613Z,-2.50
2018-02-22T19:08:37.635Z,-2.50
2018-02-22T19:11:05.363Z,-2.50
2018-02-22T19:13:33.262Z,-2.50
2018-02-22T19:16:01.233Z,-2.40
2018-02-22T19:18:29.003Z,-2.40
2018-02-22T19:20:56.931Z,-2.50
2018-02-22T19:23:25.467Z,-2.50
2018-02-22T19:25:53.406Z,-2.50
2018-02-22T19:28:21.894Z,-2.50
2018-02-22T19:30:49.643Z,-2.50
2018-02-22T19:33:18.171Z,-2.50
2018-02-22T19:35:46.166Z,-2.50
2018-02-22T19:38:13.795Z,-2.50
2018-02-22T19:40:41.413Z,-2.50
2018-02-22T19:43:09.143Z,-2.50
2018-02-22T19:45:37.086Z,-2.50
2018-02-22T19:48:05.550Z,-2.50
2018-02-22T19:50:34.085Z,-2.50
2018-02-22T19:53:01.856Z,-2.40
2018-02-22T19:55:30.429Z,-2.50
2018-02-22T19:57:58.103Z,-2.50
2018-02-22T20:00:26.071Z,-2.50
2018-02-22T20:02:53.854Z,-2.50
2018-02-22T20:05:21.633Z,-2.50
2018-02-22T20:07:49.519Z,-2.50
2018-02-22T20:10:17.279Z,-2.50
2018-02-22T20:12:44.969Z,-2.50
2018-02-22T20:15:14.447Z,-2.50
2018-02-22T20:17:42.114Z,-2.50
2018-02-22T20:20:09.831Z,-2.40
2018-02-22T20:22:38.326Z,-2.50
2018-02-22T20:25:07.606Z,-2.50
2018-02-22T20:27:37.113Z,-2.50
2018-02-22T20:30:04.831Z,-2.50
2018-02-22T20:32:32.531Z,-2.50
2018-02-22T20:35:00.237Z,-2.50
2018-02-22T20:37:28.778Z,-2.50
2018-02-22T20:39:56.500Z,-2.50
2018-02-22T20:42:25.002Z,-2.50
2018-02-22T20:44:52.787Z,-2.50
2018-02-22T20:47:21.785Z,-2.50
2018-02-22T20:49:49.922Z,-2.50
2018-02-22T20:52:21.056Z,-2.40
2018-02-22T20:55:03.604Z,-2.50
2018-02-22T20:57:31.372Z,-2.40
2018-02-22T21:00:00.090Z,-2.50
2018-02-22T21:02:28.770Z,-2.50
2018-02-22T21:04:56.550Z,-2.50
2018-02-22T21:07:24.302Z,-2.50
2018-02-22T21:09:52.278Z,-2.40
2018-02-22T21:12:19.955Z,-2.50
2018-02-22T21:14:47.723Z,-2.40
2018-02-22T21:17:15.442Z,-2.50
2018-02-22T21:19:44.765Z,-2.50
2018-02-22T21:22:12.510Z,-2.50
2018-02-22T21:24:40.213Z,-2.50
2018-02-22T21:27:08.184Z,-2.40
2018-02-22T21:29:35.874Z,-2.50
2018-02-22T21:32:03.583Z,-2.40
2018-02-22T21:34:32.022Z,-2.40
2018-02-22T21:36:59.993Z,-2.40
2018-02-22T21:39:27.677Z,-2.50
2018-02-22T21:41:55.760Z,-2.50
2018-02-22T21:44:23.445Z,-2.50
2018-02-22T21:46:51.082Z,-2.50
2018-02-22T21:49:18.707Z,-2.50
2018-02-22T21:51:47.078Z,-2.50
2018-02-22T21:54:15.439Z,-2.50
2018-02-22T21:56:43.077Z,-2.60
2018-02-22T21:59:10.680Z,-2.50
2018-02-22T22:01:38.383Z,-2.50
2018-02-22T22:04:06.788Z,-2.50
2018-02-22T22:06:34.432Z,-2.60
2018-02-22T22:09:02.057Z,-2.50
2018-02-22T22:11:29.682Z,-2.50
2018-02-22T22:13:57.352Z,-2.50
2018-02-22T22:16:24.958Z,-2.50
2018-02-22T22:18:52.646Z,-2.60
2018-02-22T22:21:21.857Z,-2.60
2018-02-22T22:23:50.284Z,-2.60
2018-02-22T22:26:17.893Z,-2.60
2018-02-22T22:28:46.330Z,-2.60
2018-02-22T22:31:13.951Z,-2.60
2018-02-22T22:33:41.605Z,-2.60
2018-02-22T22:36:09.228Z,-2.70
2018-02-22T22:38:36.864Z,-2.60
2018-02-22T22:41:05.243Z,-2.60
2018-02-22T22:43:33.617Z,-2.70
2018-02-22T22:46:01.238Z,-2.70
2018-02-22T22:48:28.892Z,-2.70
2018-02-22T22:50:56.562Z,-2.70
2018-02-22T22:53:24.164Z,-2.70
2018-02-22T22:55:51.911Z,-2.70
2018-02-22T22:58:19.535Z,-2.70
2018-02-22T23:00:47.138Z,-2.70
2018-02-22T23:03:14.786Z,-2.70
2018-02-22T23:05:42.395Z,-2.70
2018-02-22T23:08:10.813Z,-2.80
2018-02-22T23:10:39.431Z,-2.80
2018-02-22T23:13:07.094Z,-2.80
2018-02-22T23:15:34.697Z,-2.80
2018-02-22T23:18:02.367Z,-2.80
2018-02-22T23:20:30.013Z,-2.80
2018-02-22T23:22:57.628Z,-2.90
2018-02-22T23:25:26.275Z,-2.90
2018-02-22T23:27:53.882Z,-2.90
2018-02-22T23:30:22.262Z,-2.80
2018-02-22T23:32:50.614Z,-2.90
2018-02-22T23:35:18.229Z,-2.90
2018-02-22T23:37:45.841Z,-2.90
2018-02-22T23:40:13.461Z,-2.90
2018-02-22T23:42:41.092Z,-2.90
2018-02-22T23:45:09.456Z,-2.90
2018-02-22T23:47:37.082Z,-2.90
2018-02-22T23:50:04.800Z,-2.90
2018-02-22T23:52:33.275Z,-2.90
2018-02-22T23:55:01.664Z,-2.90
2018-02-22T23:57:29.328Z,-2.90
2018-02-22T23:59:57.860Z,-2.90
